»·PEaware :: DAL1741 KSLC-KPDX

DAL1741 :: KSLC-KPDX

FLIGHT INFORMATION

Flight Status: Arrived
Operator:
Delta Air Lines
More flights by this operator :: More flights under this callsign
Pilot: Anonymous 15135 (15135)
Aircraft: BOEING 737-800
(B738)
More flights by this aircraft type
Origin: KSLC Salt Lake City Intl
United States
Destination: KPDX Portland Intl
United States
More flights between these airports :: More routes between these airports
Route: TWF4 TWF J15 BOI J163 BKE JOTBA HHOOD4
File this flight plan on PilotEdge
Remarks: PBN / A1B1C1D1S1S2 DOF / 180113 REG / N806SB EET / KZSE0059 OPR / DAL PER / C RMK / TCAS SIMBRIEF
Altitude:
(Current/Filed)
28,000ft
Speed:
(Current/Filed)
484kts
Departed: 12-Jan-18 07:16 PM
Arrived: 12-Jan-18 08:56 PM
Distance/Time
Traveled:
546nm/1:40
Distance/Time
To Go:
Arrived

Flight Plot

Page will automatically refresh every two minutes.

Flight plan parsing failed; only flown route is shown


Map Options




Map Legend


Flown Route
Filed Route
Departure Airport
Arrival Airport
Navaid (VOR, NDB)
Fix

Horizontal Profiles

Position Reports

Time Latitude Longitude Heading Altitude Ground
Speed
12-Jan-18 18:47 40.789105 -111.985599 133 4234ft 0kts
12-Jan-18 18:48 40.789105 -111.985599 133 4234ft 0kts
12-Jan-18 18:49 40.789105 -111.985599 133 4234ft 0kts
12-Jan-18 18:50 40.789105 -111.985599 133 4234ft 0kts
12-Jan-18 18:51 40.789105 -111.985599 133 4234ft 0kts
12-Jan-18 18:52 40.789105 -111.985599 133 4234ft 0kts
12-Jan-18 18:53 40.789105 -111.985599 133 4234ft 0kts
12-Jan-18 18:54 40.789105 -111.985599 133 4234ft 0kts
12-Jan-18 18:55 40.789105 -111.985599 133 4234ft 0kts
12-Jan-18 18:56 40.789105 -111.985599 133 4234ft 0kts
12-Jan-18 18:57 40.789105 -111.985599 133 4234ft 0kts
12-Jan-18 18:58 40.789105 -111.985599 133 4234ft 0kts
12-Jan-18 18:59 40.789105 -111.985599 133 4234ft 0kts
12-Jan-18 19:00 40.789105 -111.985599 133 4234ft 0kts
12-Jan-18 19:01 40.789105 -111.985599 133 4234ft 0kts
12-Jan-18 19:02 40.789105 -111.985599 133 4234ft 0kts
12-Jan-18 19:03 40.789105 -111.985599 133 4234ft 0kts
12-Jan-18 19:04 40.789105 -111.985599 133 4234ft 0kts
12-Jan-18 19:05 40.789205 -111.985735 134 4235ft 2kts
12-Jan-18 19:06 40.789703 -111.986042 205 4235ft 2kts
12-Jan-18 19:07 40.789996 -111.985384 255 4235ft 2kts
12-Jan-18 19:08 40.790039 -111.985015 267 4235ft 0kts
12-Jan-18 19:09 40.790039 -111.985015 267 4234ft 0kts
12-Jan-18 19:10 40.790039 -111.985015 267 4234ft 0kts
12-Jan-18 19:11 40.790545 -111.986127 351 4234ft 8kts
12-Jan-18 19:12 40.790883 -111.986171 354 4234ft 0kts
12-Jan-18 19:13 40.790883 -111.986171 354 4234ft 0kts
12-Jan-18 19:14 40.791383 -111.986505 298 4234ft 7kts
12-Jan-18 19:15 40.791151 -111.991325 264 4234ft 17kts
12-Jan-18 19:16 40.788142 -111.993855 174 4234ft 17kts
12-Jan-18 19:17 40.783084 -111.993272 175 4234ft 18kts
12-Jan-18 19:18 40.777845 -111.992437 174 4234ft 19kts
12-Jan-18 19:19 40.775035 -111.993723 293 4234ft 0kts
12-Jan-18 19:20 40.775035 -111.993724 293 4234ft 0kts
12-Jan-18 19:21 40.775211 -111.995194 270 4234ft 12kts
12-Jan-18 19:22 40.793081 -111.997598 354 4238ft 170kts
12-Jan-18 19:23 40.831990 -112.029469 294 6037ft 197kts
12-Jan-18 19:24 40.857535 -112.106964 293 7615ft 255kts
12-Jan-18 19:25 40.885911 -112.193542 293 9976ft 263kts
12-Jan-18 19:26 40.932306 -112.270941 324 11062ft 294kts
12-Jan-18 19:27 40.998155 -112.340361 323 13867ft 303kts
12-Jan-18 19:28 41.056075 -112.407263 319 17123ft 281kts
12-Jan-18 19:29 41.119113 -112.467748 327 19506ft 288kts
12-Jan-18 19:30 41.187042 -112.526688 322 21309ft 311kts
12-Jan-18 19:31 41.259155 -112.600550 322 23112ft 335kts
12-Jan-18 19:32 41.326013 -112.689208 313 25239ft 345kts
12-Jan-18 19:33 41.390785 -112.784702 315 27281ft 353kts
12-Jan-18 19:34 41.454405 -112.882363 314 28459ft 351kts
12-Jan-18 19:35 41.521343 -112.987818 313 28467ft 395kts
12-Jan-18 19:36 41.594563 -113.103457 313 28343ft 409kts
12-Jan-18 19:37 41.667871 -113.219165 313 28436ft 408kts
12-Jan-18 19:38 41.730595 -113.318027 313 28341ft 410kts
12-Jan-18 19:39 41.798214 -113.424506 314 28339ft 410kts
12-Jan-18 19:40 41.872015 -113.540461 314 28418ft 407kts
12-Jan-18 19:41 41.945335 -113.655571 313 28417ft 407kts
12-Jan-18 19:42 42.018530 -113.770407 313 28420ft 404kts
12-Jan-18 19:43 42.091779 -113.885077 313 28418ft 404kts
12-Jan-18 19:44 42.164811 -113.999129 313 28431ft 404kts
12-Jan-18 19:45 42.237927 -114.113200 313 28430ft 403kts
12-Jan-18 19:46 42.311235 -114.227343 313 28428ft 403kts
12-Jan-18 19:47 42.384464 -114.341229 313 28426ft 402kts
12-Jan-18 19:48 42.457913 -114.455249 314 28424ft 402kts
12-Jan-18 19:49 42.530771 -114.569028 313 28422ft 401kts
12-Jan-18 19:50 42.602974 -114.684421 312 28427ft 402kts
12-Jan-18 19:51 42.675026 -114.799879 312 28425ft 401kts
12-Jan-18 19:52 42.747291 -114.915518 313 28423ft 401kts
12-Jan-18 19:53 42.819411 -115.030647 312 28421ft 400kts
12-Jan-18 19:54 42.891594 -115.145794 313 28420ft 400kts
12-Jan-18 19:55 42.963732 -115.260592 313 28418ft 399kts
12-Jan-18 19:56 43.035941 -115.375422 313 28416ft 399kts
12-Jan-18 19:57 43.108123 -115.489926 313 28423ft 399kts
12-Jan-18 19:58 43.180452 -115.604590 313 28427ft 398kts
12-Jan-18 19:59 43.252730 -115.719056 312 28432ft 398kts
12-Jan-18 20:00 43.325205 -115.833656 313 28430ft 398kts
12-Jan-18 20:01 43.397963 -115.948387 313 28428ft 398kts
12-Jan-18 20:02 43.470395 -116.062479 313 28426ft 398kts
12-Jan-18 20:03 43.543155 -116.176844 313 28425ft 397kts
12-Jan-18 20:04 43.623502 -116.280045 319 28423ft 396kts
12-Jan-18 20:05 43.704715 -116.382084 318 28421ft 396kts
12-Jan-18 20:06 43.786020 -116.484755 318 28419ft 396kts
12-Jan-18 20:07 43.867127 -116.587134 318 28417ft 396kts
12-Jan-18 20:08 43.948196 -116.689465 318 28449ft 395kts
12-Jan-18 20:09 44.029398 -116.791885 318 28448ft 395kts
12-Jan-18 20:10 44.110644 -116.894111 318 28456ft 395kts
12-Jan-18 20:11 44.191730 -116.996050 318 28458ft 394kts
12-Jan-18 20:12 44.275093 -117.100599 315 28454ft 412kts
12-Jan-18 20:13 44.360038 -117.207237 315 28452ft 411kts
12-Jan-18 20:14 44.445183 -117.313858 315 28425ft 411kts
12-Jan-18 20:15 44.530297 -117.420424 315 28422ft 411kts
12-Jan-18 20:16 44.615393 -117.526767 316 28425ft 395kts
12-Jan-18 20:17 44.699020 -117.631169 316 28420ft 412kts
12-Jan-18 20:18 44.784127 -117.737481 315 28427ft 410kts
12-Jan-18 20:19 44.847507 -117.865001 282 28426ft 408kts
12-Jan-18 20:20 44.865976 -118.022165 281 28424ft 409kts
12-Jan-18 20:21 44.883555 -118.180782 281 28422ft 409kts
12-Jan-18 20:22 44.901278 -118.339021 281 28421ft 409kts
12-Jan-18 20:23 44.919177 -118.497511 281 28419ft 410kts
12-Jan-18 20:24 44.937188 -118.654572 280 28418ft 410kts
12-Jan-18 20:25 44.955453 -118.813230 281 28425ft 410kts
12-Jan-18 20:26 44.974064 -118.971849 281 28424ft 410kts
12-Jan-18 20:27 44.992905 -119.130902 281 28422ft 412kts
12-Jan-18 20:28 45.011990 -119.289740 281 28394ft 411kts
12-Jan-18 20:29 45.031301 -119.449025 281 28392ft 411kts
12-Jan-18 20:30 45.050891 -119.608428 282 28391ft 411kts
12-Jan-18 20:31 45.070535 -119.767087 280 28392ft 419kts
12-Jan-18 20:32 45.091569 -119.934674 280 28398ft 436kts
12-Jan-18 20:33 45.112910 -120.103011 280 28399ft 436kts
12-Jan-18 20:34 45.134576 -120.271510 280 28423ft 435kts
12-Jan-18 20:35 45.156368 -120.439508 280 28425ft 435kts
12-Jan-18 20:36 45.196682 -120.599785 298 28425ft 437kts
12-Jan-18 20:37 45.251287 -120.739073 297 28403ft 404kts
12-Jan-18 20:38 45.301866 -120.870666 297 26924ft 367kts
12-Jan-18 20:39 45.350442 -120.997888 297 25102ft 370kts
12-Jan-18 20:40 45.397736 -121.122201 297 23302ft 347kts
12-Jan-18 20:41 45.437365 -121.243402 285 21615ft 335kts
12-Jan-18 20:42 45.460739 -121.365148 285 20010ft 307kts
12-Jan-18 20:43 45.483735 -121.482152 286 18470ft 309kts
12-Jan-18 20:44 45.506913 -121.599673 286 16485ft 302kts
12-Jan-18 20:45 45.528322 -121.709101 285 15042ft 278kts
12-Jan-18 20:46 45.533336 -121.815158 274 13941ft 267kts
12-Jan-18 20:47 45.536910 -121.921080 274 12857ft 265kts
12-Jan-18 20:48 45.547615 -122.005296 287 11979ft 262kts
12-Jan-18 20:49 45.572202 -122.120492 286 10754ft 257kts
12-Jan-18 20:50 45.591901 -122.214967 285 9750ft 244kts
12-Jan-18 20:51 45.607919 -122.292343 284 8927ft 245kts
12-Jan-18 20:52 45.627753 -122.388871 285 7915ft 264kts
12-Jan-18 20:53 45.650849 -122.487199 297 6871ft 258kts
12-Jan-18 20:54 45.683776 -122.577044 297 5825ft 252kts
12-Jan-18 20:55 45.719516 -122.675631 297 4606ft 235kts
12-Jan-18 20:56 45.743326 -122.743034 285 3934ft 210kts
12-Jan-18 20:57 45.715629 -122.797021 195 2834ft 182kts
12-Jan-18 20:58 45.666805 -122.798570 158 1636ft 181kts
12-Jan-18 20:59 45.641522 -122.740774 117 1379ft 176kts
12-Jan-18 21:00 45.619403 -122.683821 119 1000ft 144kts
12-Jan-18 21:01 45.599883 -122.633506 119 260ft 146kts
12-Jan-18 21:02 45.587830 -122.601208 89 36ft 11kts
12-Jan-18 21:03 45.588621 -122.599564 320 36ft 13kts
12-Jan-18 21:04 45.591614 -122.598901 40 36ft 17kts
12-Jan-18 21:05 45.592133 -122.594936 193 36ft 7kts
12-Jan-18 21:06 45.591596 -122.595185 197 36ft 0kts
12-Jan-18 21:07 45.591596 -122.595185 197 36ft 0kts
12-Jan-18 21:08 45.591596 -122.595185 197 36ft 0kts

Navigation Log

Ident Type
Flight plan parsing failed, navigation log unavailable